Sulphur, LA

8:59 PM CDT on April 19, 2018 (GMT -0500)
Sulphur

Weather History for KUXL - January, 2013

Change the Weather History Date:

Thursday, January 31, 2013

  Actual Average (KLCH) Record (KLCH)
Temperature  
Mean Temperature 48 °F -  
Max Temperature 62 °F 63 °F 80 °F (2002)
Min Temperature 33 °F 43 °F 19 °F (1949)
Degree Days  
Heating Degree Days 18    
Moisture  
Dew Point 35 °F    
Average Humidity 66    
Maximum Humidity 100    
Minimum Humidity 27    
Precipitation  
Precipitation 0.00 in - - ()
Sea Level Pressure  
Sea Level Pressure 30.28 in    
Wind  
Wind Speed 4 mph (SSW)    
Max Wind Speed 16 mph    
Max Gust Speed 21 mph    
Visibility 10 miles    
Events      
Averages and records for this station are not official NWS values.
T = Trace of Precipitation, MM = Missing Value Source: NWS Daily Summary

Daily Weather History Graph

Daily Weather History Graph

Search for Another Location

Airport or City:

Astronomy

Jan. 31, 2013 Rise Set
Actual Time 7:04 AM CST 5:49 PM CST
Civil Twilight 6:39 AM CST 6:15 PM CST
Nautical Twilight 6:10 AM CST 6:43 PM CST
Astronomical Twilight 5:42 AM CST 7:12 PM CST
Moon 10:26 PM CST (1/31) 9:28 AM CST (1/31)
Length of Visible Light 11h 35m
Length of Day
10h 45m
Waning Gibbous, 79% of the Moon is Illuminated
Jan 31
Waning Gibbous
Feb 3
Last Quarter
Feb 10
New
Feb 17
First Quarter
Feb 25
Full

Hourly Weather History & Observations

Time (CST) Temp. Windchill Dew Point Humidity Pressure Visibility Wind Dir Wind Speed Gust Speed Precip Events Conditions
12:15 AM 37.4 °F 34.9 °F 35.6 °F 93% 30.23 in 10.0 mi West 3.5 mph - N/A   Clear
12:35 AM 37.4 °F - 35.6 °F 93% 30.24 in 10.0 mi Calm Calm - N/A   Clear
12:55 AM 39.2 °F - 35.6 °F 87% 30.25 in 10.0 mi Calm Calm - N/A   Clear
1:15 AM 39.2 °F - 35.6 °F 87% 30.24 in 10.0 mi Calm Calm - N/A   Clear
1:35 AM 37.4 °F - 35.6 °F 93% 30.26 in 10.0 mi Calm Calm - N/A   Clear
1:55 AM 39.2 °F - 35.6 °F 87% 30.24 in 10.0 mi Calm Calm - N/A   Clear
2:15 AM 37.4 °F - 35.6 °F 93% 30.24 in 10.0 mi North - - N/A   Clear
2:35 AM 35.6 °F - 35.6 °F 100% 30.24 in 10.0 mi Calm Calm - N/A   Clear
2:55 AM 35.6 °F - 35.6 °F 100% 30.24 in 10.0 mi Calm Calm - N/A   Clear
3:15 AM 35.6 °F - 33.8 °F 93% 30.24 in 10.0 mi Calm Calm - N/A   Clear
3:35 AM 35.6 °F - 35.6 °F 100% 30.23 in 10.0 mi Calm Calm - N/A   Clear
3:55 AM 35.6 °F - 33.8 °F 93% 30.24 in 10.0 mi Calm Calm - N/A   Clear
4:15 AM 33.8 °F - 33.8 °F 100% 30.24 in 10.0 mi Calm Calm - N/A   Clear
4:35 AM 35.6 °F - 33.8 °F 93% 30.23 in 10.0 mi Calm Calm - N/A   Clear
4:55 AM 35.6 °F - 33.8 °F 93% 30.23 in 10.0 mi Calm Calm - N/A   Clear
5:15 AM 33.8 °F - 33.8 °F 100% 30.23 in 10.0 mi Calm Calm - N/A   Clear
5:35 AM 33.8 °F - 33.8 °F 100% 30.23 in 10.0 mi Calm Calm - N/A   Clear
5:55 AM 33.8 °F - 33.8 °F 100% 30.24 in 10.0 mi Calm Calm - N/A   Clear
6:15 AM 35.6 °F - 33.8 °F 93% 30.25 in 10.0 mi Calm Calm - N/A   Clear
6:35 AM 35.6 °F - 33.8 °F 93% 30.25 in 10.0 mi Calm Calm - N/A   Clear
6:55 AM 35.6 °F - 33.8 °F 93% 30.27 in 10.0 mi Calm Calm - N/A   Clear
7:15 AM 33.8 °F - 33.8 °F 100% 30.28 in 10.0 mi Calm Calm - N/A   Clear
7:35 AM 33.8 °F - 33.8 °F 100% 30.27 in 10.0 mi Calm Calm - N/A   Clear
7:55 AM 35.6 °F - 35.6 °F 100% 30.28 in 10.0 mi Calm Calm - N/A   Clear
8:15 AM 41.0 °F - 41.0 °F 100% 30.30 in 10.0 mi Calm Calm - N/A   Clear
8:35 AM 46.4 °F - 42.8 °F 87% 30.31 in 10.0 mi Calm Calm - N/A   Clear
8:55 AM 50.0 °F - 42.8 °F 76% 30.31 in 10.0 mi Calm Calm - N/A   Clear
9:15 AM 51.8 °F - 41.0 °F 67% 30.32 in 10.0 mi SSW 4.6 mph - N/A   Clear
9:35 AM 53.6 °F - 41.0 °F 62% 30.32 in 10.0 mi SSW 4.6 mph - N/A   Clear
9:55 AM 55.4 °F - 32.0 °F 41% 30.33 in 10.0 mi South 5.8 mph - N/A   Clear
10:15 AM 55.4 °F - 30.2 °F 38% 30.33 in 10.0 mi SSW 5.8 mph - N/A   Clear
10:35 AM 57.2 °F - 28.4 °F 33% 30.33 in 10.0 mi SW 8.1 mph - N/A   Clear
10:55 AM 59.0 °F - 26.6 °F 29% 30.33 in 10.0 mi South 8.1 mph - N/A   Clear
11:15 AM 59.0 °F - 26.6 °F 29% 30.33 in 10.0 mi South 8.1 mph - N/A   Clear
11:35 AM 59.0 °F - 28.4 °F 31% 30.32 in 10.0 mi SSW 10.4 mph - N/A   Clear
11:55 AM 60.8 °F - 26.6 °F 27% 30.32 in 10.0 mi SSW 9.2 mph - N/A   Clear
12:15 PM 60.8 °F - 26.6 °F 27% 30.31 in 10.0 mi South 8.1 mph 16.1 mph N/A   Clear
12:35 PM 62.6 °F - 28.4 °F 27% 30.31 in 10.0 mi SSW 8.1 mph - N/A   Clear
12:55 PM 62.6 °F - 28.4 °F 27% 30.29 in 10.0 mi SSW 10.4 mph 16.1 mph N/A   Clear
1:15 PM 62.6 °F - 30.2 °F 30% 30.29 in 10.0 mi South 12.7 mph 17.3 mph N/A   Clear
1:35 PM 62.6 °F - 30.2 °F 30% 30.29 in 10.0 mi South 13.8 mph - N/A   Clear
1:55 PM 62.6 °F - 32.0 °F 32% 30.28 in 10.0 mi South 13.8 mph - N/A   Clear
2:15 PM 60.8 °F - 32.0 °F 34% 30.27 in 10.0 mi SSW 12.7 mph 20.7 mph N/A   Clear
2:35 PM 60.8 °F - 32.0 °F 34% 30.28 in 10.0 mi South 12.7 mph 19.6 mph N/A   Clear
2:55 PM 60.8 °F - 32.0 °F 34% 30.27 in 10.0 mi South 15.0 mph - N/A   Clear
3:15 PM 60.8 °F - 32.0 °F 34% 30.28 in 10.0 mi South 15.0 mph 19.6 mph N/A   Clear
3:35 PM 60.8 °F - 32.0 °F 34% 30.28 in 10.0 mi South 16.1 mph - N/A   Clear
3:55 PM 60.8 °F - 28.4 °F 29% 30.27 in 10.0 mi South 13.8 mph - N/A   Clear
4:15 PM 60.8 °F - 30.2 °F 31% 30.27 in 10.0 mi SSW 13.8 mph 18.4 mph N/A   Clear
4:35 PM 59.0 °F - 32.0 °F 36% 30.28 in 10.0 mi SSW 15.0 mph - N/A   Clear
4:55 PM 59.0 °F - 30.2 °F 34% 30.28 in 10.0 mi SSW 13.8 mph 17.3 mph N/A   Clear
5:15 PM 57.2 °F - 32.0 °F 38% 30.28 in 10.0 mi SSW 10.4 mph 17.3 mph N/A   Clear
5:35 PM 55.4 °F - 32.0 °F 41% 30.27 in 10.0 mi South 10.4 mph - N/A   Clear
5:55 PM 53.6 °F - 33.8 °F 47% 30.27 in 10.0 mi South 8.1 mph - N/A   Clear
6:15 PM 53.6 °F - 35.6 °F 51% 30.27 in 10.0 mi South 6.9 mph - N/A   Clear
6:35 PM 51.8 °F - 35.6 °F 54% 30.27 in 10.0 mi South 6.9 mph - N/A   Clear
6:55 PM 51.8 °F - 35.6 °F 54% 30.27 in 10.0 mi South 6.9 mph - N/A   Clear
7:15 PM 51.8 °F - 37.4 °F 58% 30.28 in 10.0 mi South 5.8 mph - N/A   Clear
7:35 PM 50.0 °F - 37.4 °F 62% 30.28 in 10.0 mi South 5.8 mph - N/A   Clear
7:55 PM 50.0 °F - 35.6 °F 58% 30.30 in 10.0 mi South 5.8 mph - N/A   Clear
8:15 PM 48.2 °F - 37.4 °F 66% 30.30 in 10.0 mi South 4.6 mph - N/A   Clear
8:35 PM 50.0 °F - 37.4 °F 62% 30.32 in 10.0 mi SSW 4.6 mph - N/A   Clear
8:55 PM 50.0 °F - 41.0 °F 71% 30.32 in 10.0 mi SSW 4.6 mph - N/A   Clear
9:15 PM 50.0 °F - 41.0 °F 71% 30.33 in 10.0 mi SSW 5.8 mph - N/A   Clear
9:35 PM 50.0 °F - 41.0 °F 71% 30.34 in 10.0 mi SSW 4.6 mph - N/A   Clear
9:55 PM 50.0 °F - 41.0 °F 71% 30.34 in 10.0 mi South 4.6 mph - N/A   Clear
10:15 PM 50.0 °F - 42.8 °F 76% 30.34 in 10.0 mi SSW 3.5 mph - N/A   Clear
10:35 PM 50.0 °F - 42.8 °F 76% 30.34 in 10.0 mi Calm Calm - N/A   Clear
10:55 PM 48.2 °F - 42.8 °F 82% 30.34 in 10.0 mi SSW 3.5 mph - N/A   Clear
11:15 PM 48.2 °F - 42.8 °F 82% 30.34 in 10.0 mi SSW 3.5 mph - N/A   Clear
11:35 PM 48.2 °F - 42.8 °F 82% 30.34 in 10.0 mi SSW 4.6 mph - N/A   Clear
11:55 PM 48.2 °F - 42.8 °F 82% 30.34 in 10.0 mi Calm Calm - N/A   Clear